Time;durP1;ratioP1;P1;durP2;ratioP2;P2;SDS_P1;SDS_P2;PMS_P1;PMS_P2;Temp;Humidity;BMP_temperature;BMP_pressure;BME280_temperature;BME280_humidity;BME280_pressure;Samples;Min_cycle;Max_cycle;Signal;HPM_P1;HPM_P2
2023/11/05 00:00:43;;;;;;;1.52;0.60;;;;;;;-146.25;100.00;52483.78;2089345;28;20056;-78
2023/11/05 00:01:44;;;;;;;1.63;0.57;;;;;;;-146.25;100.00;52467.56;2088369;28;34040;-78
2023/11/05 00:02:46;;;;;;;2.78;0.90;;;;;;;-146.25;100.00;52439.16;2088214;28;33184;-78
2023/11/05 00:03:49;;;;;;;2.15;0.70;;;;;;;-146.25;100.00;52473.63;2089366;28;20883;-76
2023/11/05 00:04:50;;;;;;;2.33;0.70;;;;;;;-146.25;100.00;52487.81;2088601;28;37338;-78
2023/11/05 00:05:52;;;;;;;3.28;0.63;;;;;;;-146.25;100.00;52465.53;2088951;28;34734;-79
2023/11/05 00:06:56;;;;;;;2.03;0.65;;;;;;;-146.25;100.00;52491.88;2089789;28;20846;-78
2023/11/05 00:07:57;;;;;;;3.67;0.65;;;;;;;-146.25;100.00;52437.13;2088755;28;36829;-79
2023/11/05 00:08:59;;;;;;;1.77;0.70;;;;;;;-146.25;100.00;52437.13;2089100;28;33709;-79
2023/11/05 00:10:01;;;;;;;3.60;0.90;;;;;;;-146.25;100.00;52461.47;2089174;28;32103;-79
2023/11/05 00:11:04;;;;;;;1.38;0.60;;;;;;;-146.25;100.00;52418.88;2089643;28;37532;-79
2023/11/05 00:12:06;;;;;;;3.45;0.65;;;;;;;-146.25;100.00;52481.75;2087894;28;34270;-78
2023/11/05 00:13:10;;;;;;;4.88;0.70;;;;;;;-146.25;100.00;52469.56;2088925;28;20038;-78
2023/11/05 00:14:12;;;;;;;4.30;0.80;;;;;;;-146.25;100.00;52451.31;2088640;28;33454;-78
2023/11/05 00:15:14;;;;;;;2.45;0.80;;;;;;;-146.25;100.00;52467.56;2088789;28;33342;-78
2023/11/05 00:16:16;;;;;;;3.78;0.90;;;;;;;-146.25;100.00;52457.41;2088533;28;33411;-78
2023/11/05 00:17:18;;;;;;;6.63;0.80;;;;;;;-146.25;100.00;52461.47;2088633;28;32511;-78
2023/11/05 00:18:22;;;;;;;3.17;1.00;;;;;;;-146.25;100.00;52477.69;2088886;28;34053;-77
2023/11/05 00:19:25;;;;;;;2.85;0.70;;;;;;;-146.25;100.00;52471.59;2088806;28;34057;-78
2023/11/05 00:20:27;;;;;;;2.47;1.10;;;;;;;-146.25;100.00;52491.88;2089082;28;35149;-78
2023/11/05 00:21:29;;;;;;;3.63;0.90;;;;;;;-146.25;100.00;52481.75;2089651;28;20081;-78
2023/11/05 00:22:35;;;;;;;2.65;0.70;;;;;;;-146.25;100.00;52441.19;2089226;28;31320;-78
2023/11/05 00:23:37;;;;;;;2.97;1.10;;;;;;;-146.25;100.00;52449.31;2089093;28;35399;-78
2023/11/05 00:24:41;;;;;;;5.50;1.00;;;;;;;-146.25;100.00;52441.19;2088966;28;32385;-79
2023/11/05 00:25:44;;;;;;;2.47;0.90;;;;;;;-146.25;100.00;52469.56;2089776;28;20140;-78
2023/11/05 00:26:46;;;;;;;3.10;0.90;;;;;;;-146.25;100.00;52469.56;2088997;28;33522;-78
2023/11/05 00:27:48;;;;;;;2.10;1.08;;;;;;;-146.25;100.00;52467.56;2097077;28;20046;-79
2023/11/05 00:28:50;;;;;;;2.38;1.10;;;;;;;-146.25;100.00;52479.72;2097014;28;28493;-78
2023/11/05 00:29:53;;;;;;;2.25;0.90;;;;;;;-146.25;100.00;52461.47;2096052;28;35148;-78
2023/11/05 00:30:54;;;;;;;1.70;0.65;;;;;;;-146.25;100.00;52433.06;2096701;28;24078;-79
2023/11/05 00:31:56;;;;;;;1.88;0.80;;;;;;;-146.25;100.00;52497.97;2088251;28;28978;-78
2023/11/05 00:32:58;;;;;;;2.25;1.08;;;;;;;-146.25;100.00;52457.41;2088754;28;27884;-77
2023/11/05 00:34:00;;;;;;;3.40;0.75;;;;;;;-146.25;100.00;52453.34;2088903;28;30701;-79
2023/11/05 00:35:02;;;;;;;2.22;0.70;;;;;;;-146.25;100.00;52424.97;2088694;28;31119;-79
2023/11/05 00:36:06;;;;;;;2.58;0.90;;;;;;;-146.25;100.00;52473.63;2089419;28;20041;-79
2023/11/05 00:37:08;;;;;;;2.85;0.90;;;;;;;-146.25;100.00;52467.56;2089506;28;20818;-77
2023/11/05 00:38:11;;;;;;;2.78;0.82;;;;;;;-146.25;100.00;52481.75;2088914;28;31124;-78
2023/11/05 00:39:37;;;;;;;3.10;0.90;;;;;;;-146.25;100.00;52453.34;2095522;28;20036;-78
2023/11/05 00:40:39;;;;;;;2.03;0.77;;;;;;;-146.25;100.00;52453.34;2096607;28;28401;-78
2023/11/05 00:41:43;;;;;;;2.45;0.75;;;;;;;-146.25;100.00;52455.38;2089346;28;20530;-78
2023/11/05 00:42:45;;;;;;;3.75;1.08;;;;;;;-146.25;100.00;52469.56;2097203;28;20044;-79
2023/11/05 00:43:47;;;;;;;3.00;0.80;;;;;;;-146.25;100.00;52441.19;2096318;28;20160;-78
2023/11/05 00:44:49;;;;;;;2.85;0.90;;;;;;;-146.25;100.00;52457.41;2088997;28;27411;-78
2023/11/05 00:45:51;;;;;;;3.75;0.82;;;;;;;-146.25;100.00;52479.72;2088703;28;28903;-78
2023/11/05 00:46:52;;;;;;;2.17;0.85;;;;;;;-146.25;100.00;52457.41;2096277;28;26469;-79
2023/11/05 00:47:54;;;;;;;3.60;0.80;;;;;;;-146.25;100.00;52437.13;2096619;28;28407;-78
2023/11/05 00:48:56;;;;;;;2.50;0.68;;;;;;;-146.25;100.00;52473.63;2096407;28;28708;-78
2023/11/05 00:49:59;;;;;;;2.92;0.95;;;;;;;-146.25;100.00;52465.53;2088563;28;20049;-77
2023/11/05 00:51:03;;;;;;;3.15;0.98;;;;;;;-146.25;100.00;52449.31;2088019;28;30976;-79
2023/11/05 00:52:05;;;;;;;2.85;0.88;;;;;;;-146.25;100.00;52479.72;2087921;28;30510;-79
2023/11/05 00:53:07;;;;;;;3.85;0.80;;;;;;;-146.25;100.00;52437.13;2087769;28;33505;-79
2023/11/05 00:54:09;;;;;;;2.97;0.90;;;;;;;-146.25;100.00;52437.13;2088039;28;33541;-78
2023/11/05 00:55:14;;;;;;;2.70;0.80;;;;;;;-146.25;100.00;52447.28;2089412;28;20049;-78
2023/11/05 00:56:16;;;;;;;3.30;0.82;;;;;;;-146.25;100.00;52457.41;2088768;28;32601;-78
2023/11/05 00:57:17;;;;;;;3.20;0.63;;;;;;;-146.25;100.00;52471.59;2096402;28;34937;-78
2023/11/05 00:58:19;;;;;;;4.03;0.80;;;;;;;-146.25;100.00;52455.38;2096282;28;26245;-79
2023/11/05 00:59:21;;;;;;;7.35;1.27;;;;;;;-146.25;100.00;52469.56;2088566;28;34558;-79
2023/11/05 01:00:23;;;;;;;4.20;0.70;;;;;;;-146.25;100.00;52473.63;2096134;28;27171;-78
2023/11/05 01:01:28;;;;;;;4.72;0.80;;;;;;;-146.25;100.00;52479.72;2096164;28;20172;-78
2023/11/05 01:02:30;;;;;;;1.67;0.68;;;;;;;-146.25;100.00;52451.31;2088516;28;33818;-78
2023/11/05 01:03:32;;;;;;;2.63;0.70;;;;;;;-146.25;100.00;52518.25;2088930;28;25444;-78
2023/11/05 01:04:33;;;;;;;4.00;0.70;;;;;;;-146.25;100.00;52477.69;2088429;28;30894;-77
2023/11/05 01:05:38;;;;;;;3.25;0.90;;;;;;;-146.25;100.00;52469.56;2089180;28;20940;-78
2023/11/05 01:06:40;;;;;;;2.85;0.80;;;;;;;-146.25;100.00;52455.38;2096480;28;20861;-78
2023/11/05 01:07:42;;;;;;;3.58;0.55;;;;;;;-146.25;100.00;52477.69;2096385;28;28838;-78
2023/11/05 01:08:43;;;;;;;4.03;0.80;;;;;;;-146.25;100.00;52473.63;2096096;28;25977;-77
2023/11/05 01:09:45;;;;;;;2.83;0.80;;;;;;;-146.25;100.00;52477.69;2096790;28;20037;-78
2023/11/05 01:10:47;;;;;;;3.88;0.90;;;;;;;-146.25;100.00;52461.47;2088548;28;30629;-78
2023/11/05 01:11:51;;;;;;;4.28;0.73;;;;;;;-146.25;100.00;52495.94;2088866;28;29027;-79
2023/11/05 01:12:53;;;;;;;4.10;0.90;;;;;;;-146.25;100.00;52461.47;2088294;28;20506;-77
2023/11/05 01:13:55;;;;;;;3.08;0.80;;;;;;;-146.25;100.00;52497.97;2088219;28;27932;-78
2023/11/05 01:14:57;;;;;;;3.63;0.90;;;;;;;-146.25;100.00;52453.34;2088456;28;20038;-78
2023/11/05 01:15:59;;;;;;;3.03;0.68;;;;;;;-146.25;100.00;52491.88;2089200;28;20077;-78
2023/11/05 01:17:00;;;;;;;3.15;0.60;;;;;;;-146.25;100.00;52469.56;2087322;28;26518;-79
2023/11/05 01:18:03;;;;;;;3.83;0.60;;;;;;;-146.25;100.00;52435.09;2079578;28;31860;-78
2023/11/05 01:19:06;;;;;;;4.75;0.77;;;;;;;-146.25;100.00;52453.34;2088182;28;20033;-78
2023/11/05 01:20:09;;;;;;;2.95;0.60;;;;;;;-146.25;100.00;52449.31;2088286;28;31485;-79
2023/11/05 01:21:13;;;;;;;3.22;0.88;;;;;;;-146.25;100.00;52398.59;2088634;28;24199;-78
2023/11/05 01:22:17;;;;;;;4.95;0.90;;;;;;;-146.25;100.00;52469.56;2096699;28;20122;-78
2023/11/05 01:23:20;;;;;;;3.60;0.85;;;;;;;-146.25;100.00;52433.06;2096143;28;28085;-76
2023/11/05 01:24:22;;;;;;;3.53;0.70;;;;;;;-146.25;100.00;52424.97;2087548;28;28278;-78
2023/11/05 01:25:23;;;;;;;2.45;0.70;;;;;;;-146.25;100.00;52463.50;2088049;28;20231;-78
2023/11/05 01:26:25;;;;;;;2.55;0.80;;;;;;;-146.25;100.00;52467.56;2088518;28;26101;-79
2023/11/05 01:27:27;;;;;;;2.60;0.85;;;;;;;-146.25;100.00;52469.56;2088154;28;21070;-78
2023/11/05 01:28:29;;;;;;;2.88;0.73;;;;;;;-146.25;100.00;52485.81;2088045;28;31232;-78
2023/11/05 01:29:31;;;;;;;2.85;0.80;;;;;;;-146.25;100.00;52443.22;2088407;28;28877;-77
2023/11/05 01:30:34;;;;;;;3.13;0.80;;;;;;;-146.25;100.00;52477.69;2089735;28;20046;-77
2023/11/05 01:31:36;;;;;;;3.90;0.73;;;;;;;-146.25;100.00;52445.25;2095938;28;20076;-79
2023/11/05 01:32:41;;;;;;;4.30;0.70;;;;;;;-146.25;100.00;52467.56;2087304;28;31306;-78
2023/11/05 01:33:43;;;;;;;6.32;0.80;;;;;;;-146.25;100.00;52431.06;2087063;28;31446;-78
2023/11/05 01:34:45;;;;;;;6.68;0.70;;;;;;;-146.25;100.00;52489.84;2096151;28;35127;-78
2023/11/05 01:35:47;;;;;;;2.78;0.70;;;;;;;-146.25;100.00;52489.84;2096241;28;20025;-78
2023/11/05 01:36:49;;;;;;;4.10;0.90;;;;;;;-146.25;100.00;52453.34;2088562;28;20030;-79
2023/11/05 01:37:50;;;;;;;2.78;0.50;;;;;;;-146.25;100.00;52473.63;2088813;28;20282;-78
2023/11/05 01:38:52;;;;;;;3.63;0.75;;;;;;;-146.25;100.00;52465.53;2088422;28;26286;-78
2023/11/05 01:39:55;;;;;;;5.45;0.80;;;;;;;-146.25;100.00;52461.47;2095782;28;33540;-75
2023/11/05 01:40:57;;;;;;;4.55;0.68;;;;;;;-146.25;100.00;52449.31;2096173;28;20886;-78
2023/11/05 01:41:59;;;;;;;6.60;0.70;;;;;;;-146.25;100.00;52457.41;2088373;28;31660;-75
2023/11/05 01:43:03;;;;;;;5.10;0.82;;;;;;;-146.25;100.00;52457.41;2087887;28;26694;-78
2023/11/05 01:44:05;;;;;;;4.38;0.60;;;;;;;-146.25;100.00;52445.25;2088126;28;20151;-78
2023/11/05 01:45:10;;;;;;;5.03;0.85;;;;;;;-146.25;100.00;52455.38;2088750;28;20124;-78
2023/11/05 01:46:11;;;;;;;2.65;0.40;;;;;;;-146.25;100.00;52441.19;2088543;28;22244;-78
2023/11/05 01:47:14;;;;;;;3.40;0.60;;;;;;;-146.25;100.00;52424.97;2088062;28;20223;-78
2023/11/05 01:48:16;;;;;;;3.97;0.60;;;;;;;-146.25;100.00;52475.66;2088116;28;31395;-78
2023/11/05 01:49:18;;;;;;;2.85;0.57;;;;;;;-146.25;100.00;52477.69;2096047;28;30548;-79
2023/11/05 01:50:22;;;;;;;4.00;0.40;;;;;;;-146.25;100.00;52451.31;2079636;28;20811;-77
2023/11/05 01:51:25;;;;;;;2.65;0.57;;;;;;;-146.25;100.00;52461.47;2064294;28;23440;-78
2023/11/05 01:52:28;;;;;;;2.28;0.40;;;;;;;-146.25;100.00;52491.88;2071925;28;29965;-78
2023/11/05 01:53:30;;;;;;;4.30;0.70;;;;;;;-146.25;100.00;52485.81;2088669;28;20041;-78
2023/11/05 01:54:31;;;;;;;2.85;0.60;;;;;;;-146.25;100.00;52473.63;2087558;28;30900;-79
2023/11/05 01:55:35;;;;;;;6.50;0.88;;;;;;;-146.25;100.00;52457.41;2088381;28;29749;-78
2023/11/05 01:56:38;;;;;;;5.00;0.73;;;;;;;-146.25;100.00;52471.59;2087914;28;20853;-79
2023/11/05 01:57:40;;;;;;;2.72;0.50;;;;;;;-146.25;100.00;52473.63;2080546;28;20228;-78
2023/11/05 01:58:42;;;;;;;4.50;0.73;;;;;;;-146.25;100.00;52465.53;2079922;28;20057;-78
2023/11/05 01:59:45;;;;;;;6.13;0.70;;;;;;;-146.25;100.00;52459.44;2080031;28;20153;-79
2023/11/05 02:00:46;;;;;;;5.43;0.70;;;;;;;-146.25;100.00;52475.66;2079455;28;20147;-79
2023/11/05 02:01:50;;;;;;;4.35;0.60;;;;;;;-146.25;100.00;52504.03;2079985;28;20037;-79
2023/11/05 02:02:51;;;;;;;7.97;0.93;;;;;;;-146.25;100.00;52542.56;2096046;28;20044;-78
2023/11/05 02:03:54;;;;;;;5.25;0.43;;;;;;;-146.25;100.00;52481.75;2088238;28;20072;-78
2023/11/05 02:04:58;;;;;;;4.68;0.65;;;;;;;-146.25;100.00;52461.47;2079777;28;20165;-78
2023/11/05 02:06:00;;;;;;;2.22;0.40;;;;;;;-146.25;100.00;52481.75;2079894;28;20037;-79
2023/11/05 02:07:05;;;;;;;4.68;0.47;;;;;;;-146.25;100.00;52491.88;2079697;28;20172;-78
2023/11/05 02:08:09;;;;;;;3.80;0.70;;;;;;;-146.25;100.00;52475.66;2080116;28;20046;-78
2023/11/05 02:09:11;;;;;;;4.10;0.50;;;;;;;-146.25;100.00;52485.81;2087762;28;20085;-76
2023/11/05 02:10:13;;;;;;;3.78;0.52;;;;;;;-146.25;100.00;52433.06;2087374;28;35173;-78
2023/11/05 02:11:17;;;;;;;3.78;0.43;;;;;;;-146.25;100.00;52469.56;2088242;28;26873;-78
2023/11/05 02:12:19;;;;;;;5.40;0.60;;;;;;;-146.25;100.00;52457.41;2088889;28;20064;-78
2023/11/05 02:13:22;;;;;;;5.45;0.80;;;;;;;-146.25;100.00;52412.81;2087701;28;21222;-78
2023/11/05 02:14:24;;;;;;;5.20;0.60;;;;;;;-146.25;100.00;52461.47;2087971;28;25904;-78
2023/11/05 02:15:28;;;;;;;4.70;0.63;;;;;;;-146.25;100.00;52493.91;2087751;28;20462;-78
2023/11/05 02:16:32;;;;;;;4.47;0.50;;;;;;;-146.25;100.00;52483.78;2088049;28;21876;-78
2023/11/05 02:17:38;;;;;;;3.85;0.60;;;;;;;-146.25;100.00;52437.13;2087853;28;20041;-77
2023/11/05 02:18:40;;;;;;;4.22;0.55;;;;;;;-146.25;100.00;52437.13;2080607;28;21121;-79
2023/11/05 02:19:42;;;;;;;3.92;0.50;;;;;;;-146.25;100.00;52473.63;2079026;28;24129;-78
2023/11/05 02:20:44;;;;;;;5.32;0.80;;;;;;;-146.25;100.00;52502.03;2079272;28;22610;-78
2023/11/05 02:21:59;;;;;;;4.35;0.60;;;;;;;-146.25;100.00;52477.69;2079138;28;26805;-78
2023/11/05 02:23:05;;;;;;;7.20;0.60;;;;;;;-146.25;100.00;52447.28;2079369;28;34673;-78
2023/11/05 02:24:07;;;;;;;3.45;0.55;;;;;;;-146.25;100.00;52455.38;2073183;28;23733;-79
2023/11/05 02:25:09;;;;;;;5.95;0.60;;;;;;;-146.25;100.00;52437.13;2079187;28;21285;-79
2023/11/05 02:26:10;;;;;;;3.42;0.55;;;;;;;-146.25;100.00;52473.63;2087751;28;20072;-79
2023/11/05 02:27:13;;;;;;;6.45;1.20;;;;;;;-146.25;100.00;52461.47;2087664;28;30292;-78
2023/11/05 02:28:14;;;;;;;4.97;0.65;;;;;;;-146.25;100.00;52418.88;2079599;28;20259;-78
2023/11/05 02:29:18;;;;;;;6.78;0.70;;;;;;;-146.25;100.00;52455.38;2079342;28;26728;-78
2023/11/05 02:30:24;;;;;;;8.18;0.80;;;;;;;-146.25;100.00;52465.53;2079659;28;20076;-79
2023/11/05 02:31:26;;;;;;;5.75;0.50;;;;;;;-146.25;100.00;52477.69;2080220;28;20050;-79
2023/11/05 02:32:28;;;;;;;5.32;0.80;;;;;;;-146.25;100.00;52463.50;2079239;28;20454;-79
2023/11/05 02:33:30;;;;;;;3.28;0.70;;;;;;;-146.25;100.00;52461.47;2087909;28;27497;-79
2023/11/05 02:34:32;;;;;;;4.88;0.68;;;;;;;-146.25;100.00;52465.53;2095983;28;24338;-79
2023/11/05 02:35:34;;;;;;;6.03;0.80;;;;;;;-146.25;100.00;52473.63;2095937;28;25898;-77
2023/11/05 02:36:36;;;;;;;2.88;0.50;;;;;;;-146.25;100.00;52463.50;2095329;28;33215;-79
2023/11/05 02:37:43;;;;;;;5.78;0.63;;;;;;;-146.25;100.00;52457.41;2095728;28;36182;-78
2023/11/05 02:38:44;;;;;;;5.85;0.75;;;;;;;-146.25;100.00;52461.47;2088277;28;27685;-78
2023/11/05 02:39:48;;;;;;;4.20;0.50;;;;;;;-146.25;100.00;52471.59;2088352;28;24807;-79
2023/11/05 02:40:50;;;;;;;7.15;0.82;;;;;;;-146.25;100.00;52455.38;2096002;28;20917;-79
2023/11/05 02:41:52;;;;;;;5.72;0.88;;;;;;;-146.25;100.00;52481.75;2095955;28;22294;-79
2023/11/05 02:42:54;;;;;;;4.43;0.60;;;;;;;-146.25;100.00;52431.06;2087444;28;20247;-78
2023/11/05 02:43:58;;;;;;;6.80;0.63;;;;;;;-146.25;100.00;52497.97;2087814;28;28271;-79
2023/11/05 02:45:01;;;;;;;6.45;0.73;;;;;;;-146.25;100.00;52497.97;2078757;28;33752;-79
2023/11/05 02:46:03;;;;;;;3.83;0.70;;;;;;;-146.25;100.00;52485.81;2071679;28;30289;-78
2023/11/05 02:47:08;;;;;;;4.07;0.63;;;;;;;-146.25;100.00;52463.50;2087267;28;28649;-79
2023/11/05 02:48:09;;;;;;;7.53;0.90;;;;;;;-146.25;100.00;52459.44;2088081;28;32270;-79
2023/11/05 02:49:12;;;;;;;3.10;0.82;;;;;;;-146.25;100.00;52433.06;2087361;28;29058;-76
2023/11/05 02:50:14;;;;;;;5.53;0.85;;;;;;;-146.25;100.00;52471.59;2080383;28;25872;-76
2023/11/05 02:51:16;;;;;;;6.40;0.80;;;;;;;-146.25;100.00;52497.97;2087348;28;29613;-78
2023/11/05 02:52:17;;;;;;;3.75;0.63;;;;;;;-146.25;100.00;52435.09;2088327;28;31132;-79
2023/11/05 02:53:20;;;;;;;6.28;1.48;;;;;;;-146.25;100.00;52497.97;2095349;28;31074;-78
2023/11/05 02:54:27;;;;;;;5.88;0.80;;;;;;;-146.25;100.00;52424.97;2095418;28;20055;-78
2023/11/05 02:55:32;;;;;;;8.23;0.98;;;;;;;-146.25;100.00;52471.59;2087329;28;24390;-79
2023/11/05 02:56:36;;;;;;;4.20;0.70;;;;;;;-146.25;100.00;52471.59;2087582;28;32956;-78
2023/11/05 02:57:38;;;;;;;5.82;1.08;;;;;;;-146.25;100.00;52493.91;2087931;28;20092;-79
2023/11/05 02:58:42;;;;;;;3.40;0.80;;;;;;;-146.25;100.00;52439.16;2088572;28;21879;-78
2023/11/05 02:59:44;;;;;;;3.47;0.70;;;;;;;-146.25;100.00;52504.03;2087463;28;20160;-79
2023/11/05 03:00:46;;;;;;;6.82;1.50;;;;;;;-146.25;100.00;52453.34;2082749;28;20049;-78
2023/11/05 03:01:48;;;;;;;4.57;0.90;;;;;;;-146.25;100.00;52453.34;2079339;28;20864;-78
2023/11/05 03:02:50;;;;;;;4.15;0.75;;;;;;;-146.25;100.00;52487.81;2079462;28;20869;-79
2023/11/05 03:03:52;;;;;;;3.40;0.63;;;;;;;-146.25;100.00;52483.78;2080785;28;21399;-78
2023/11/05 03:04:57;;;;;;;7.57;1.08;;;;;;;-146.25;100.00;52429.03;2088824;28;29971;-76
2023/11/05 03:05:59;;;;;;;5.20;0.90;;;;;;;-146.25;100.00;52497.97;2089151;28;20053;-78
2023/11/05 03:07:01;;;;;;;4.75;0.75;;;;;;;-146.25;100.00;52453.34;2089020;28;30181;-78
2023/11/05 03:08:03;;;;;;;5.38;1.00;;;;;;;-146.25;100.00;52435.09;2096813;28;20049;-78
2023/11/05 03:09:05;;;;;;;6.00;1.05;;;;;;;-146.25;100.00;52449.31;2097344;28;25692;-78
2023/11/05 03:10:08;;;;;;;6.28;1.05;;;;;;;-146.25;100.00;52457.41;2088857;28;20046;-78
2023/11/05 03:11:10;;;;;;;4.68;0.63;;;;;;;-146.25;100.00;52465.53;2089002;28;29296;-78
2023/11/05 03:12:11;;;;;;;5.38;0.80;;;;;;;-146.25;100.00;52471.59;2089313;28;24616;-78
2023/11/05 03:13:14;;;;;;;5.22;1.10;;;;;;;-146.25;100.00;52459.44;2088511;28;31411;-77
2023/11/05 03:14:15;;;;;;;2.75;0.80;;;;;;;-146.25;100.00;52461.47;2080384;28;30128;-78
2023/11/05 03:15:17;;;;;;;6.82;0.95;;;;;;;-146.25;100.00;52502.03;2089027;28;23379;-78
2023/11/05 03:16:19;;;;;;;4.68;0.73;;;;;;;-146.25;100.00;52510.13;2088683;28;34751;-79
2023/11/05 03:17:21;;;;;;;5.70;1.00;;;;;;;-146.25;100.00;52457.41;2097025;28;20025;-78
2023/11/05 03:18:24;;;;;;;6.28;0.88;;;;;;;-146.25;100.00;52477.69;2096379;28;27896;-79
2023/11/05 03:19:26;;;;;;;5.60;0.77;;;;;;;-146.25;100.00;52461.47;2089492;28;29964;-78
2023/11/05 03:20:30;;;;;;;4.72;0.80;;;;;;;-146.25;100.00;52447.28;2097273;28;20821;-79
2023/11/05 03:21:32;;;;;;;4.65;1.05;;;;;;;-146.25;100.00;52463.50;2096733;28;32778;-78
2023/11/05 03:22:35;;;;;;;6.95;1.00;;;;;;;-146.25;100.00;52475.66;2088964;28;20030;-78
2023/11/05 03:23:37;;;;;;;4.65;1.20;;;;;;;-146.25;100.00;52473.63;2089489;28;26448;-78
2023/11/05 03:24:40;;;;;;;5.88;1.20;;;;;;;-146.25;100.00;52479.72;2088623;28;34858;-78
2023/11/05 03:25:44;;;;;;;3.78;0.77;;;;;;;-146.25;100.00;52441.19;2089725;28;20041;-78
2023/11/05 03:26:46;;;;;;;5.63;0.88;;;;;;;-146.25;100.00;52481.75;2089018;28;31406;-78
2023/11/05 03:27:48;;;;;;;3.30;0.80;;;;;;;-146.25;100.00;52477.69;2089644;28;23446;-76
2023/11/05 03:28:49;;;;;;;5.07;1.02;;;;;;;-146.25;100.00;52471.59;2096860;28;31283;-78
2023/11/05 03:29:51;;;;;;;6.68;0.88;;;;;;;-146.25;100.00;52439.16;2097777;28;24408;-78
2023/11/05 03:30:53;;;;;;;5.68;0.95;;;;;;;-146.25;100.00;52433.06;2089634;28;29855;-78
2023/11/05 03:31:55;;;;;;;5.68;0.90;;;;;;;-146.25;100.00;52475.66;2089435;28;26790;-78
2023/11/05 03:32:57;;;;;;;6.05;1.00;;;;;;;-146.25;100.00;52457.41;2088762;28;20869;-78
2023/11/05 03:34:00;;;;;;;4.63;0.82;;;;;;;-146.25;100.00;52459.44;2081268;28;20057;-78
2023/11/05 03:35:04;;;;;;;4.97;0.90;;;;;;;-146.25;100.00;52469.56;2080097;28;32993;-78
2023/11/05 03:36:09;;;;;;;8.70;1.05;;;;;;;-146.25;100.00;52504.03;2089007;28;27390;-79
2023/11/05 03:37:14;;;;;;;5.75;1.08;;;;;;;-146.25;100.00;52451.31;2089135;28;20042;-78
2023/11/05 03:38:16;;;;;;;6.60;0.82;;;;;;;-146.25;100.00;52473.63;2088794;28;27730;-78
2023/11/05 03:39:18;;;;;;;6.00;0.80;;;;;;;-146.25;100.00;52459.44;2088079;28;27351;-78
2023/11/05 03:40:21;;;;;;;5.22;0.80;;;;;;;-146.25;100.00;52500.00;2089586;28;26830;-77
2023/11/05 03:41:23;;;;;;;4.45;0.85;;;;;;;-146.25;100.00;52475.66;2089492;28;29412;-78
2023/11/05 03:42:25;;;;;;;4.97;1.00;;;;;;;-146.25;100.00;52457.41;2089519;28;29778;-78
2023/11/05 03:43:29;;;;;;;2.85;0.77;;;;;;;-146.25;100.00;52449.31;2089245;28;28126;-78
2023/11/05 03:44:31;;;;;;;5.53;1.05;;;;;;;-146.25;100.00;52441.19;2096862;28;34249;-79
2023/11/05 03:45:33;;;;;;;6.05;0.90;;;;;;;-146.25;100.00;52445.25;2097419;28;21009;-79
2023/11/05 03:46:39;;;;;;;6.25;0.90;;;;;;;-146.25;100.00;52435.09;2089514;28;20099;-78
2023/11/05 03:47:41;;;;;;;9.10;0.80;;;;;;;-146.25;100.00;52479.72;2090164;28;20049;-78
2023/11/05 03:48:43;;;;;;;4.40;0.95;;;;;;;-146.25;100.00;52477.69;2080526;28;27433;-78
2023/11/05 03:49:45;;;;;;;7.57;0.70;;;;;;;-146.25;100.00;52455.38;2080807;28;33107;-78
2023/11/05 03:50:47;;;;;;;7.78;0.77;;;;;;;-146.25;100.00;52459.44;2089480;28;35250;-78
2023/11/05 03:51:53;;;;;;;3.63;0.55;;;;;;;-146.25;100.00;52463.50;2089723;28;29132;-79
2023/11/05 03:52:56;;;;;;;4.32;0.85;;;;;;;-146.25;100.00;52489.84;2088816;28;30230;-78
2023/11/05 03:53:58;;;;;;;6.28;0.75;;;;;;;-146.25;100.00;52477.69;2088716;28;23917;-78
2023/11/05 03:54:59;;;;;;;7.10;0.70;;;;;;;-146.25;100.00;52461.47;2097560;28;21653;-77
2023/11/05 03:56:01;;;;;;;5.07;0.73;;;;;;;-146.25;100.00;52461.47;2088392;28;26619;-79
2023/11/05 03:57:03;;;;;;;7.18;0.80;;;;;;;-146.25;100.00;52451.31;2080279;28;32687;-79
2023/11/05 03:58:05;;;;;;;4.15;0.45;;;;;;;-146.25;100.00;52463.50;2080424;28;28680;-79
2023/11/05 03:59:07;;;;;;;3.95;0.60;;;;;;;-146.25;100.00;52471.59;2088822;28;33412;-79
2023/11/05 04:00:11;;;;;;;4.38;0.60;;;;;;;-146.25;100.00;52477.69;2089398;28;21477;-79
2023/11/05 04:01:18;;;;;;;4.55;0.50;;;;;;;-146.25;100.00;52437.13;2088876;28;32862;-79
2023/11/05 04:02:21;;;;;;;6.22;0.50;;;;;;;-146.25;100.00;52455.38;2096536;28;30852;-79
2023/11/05 04:03:23;;;;;;;3.15;0.50;;;;;;;-146.25;100.00;52473.63;2097054;28;24804;-79
2023/11/05 04:04:26;;;;;;;5.28;0.50;;;;;;;-146.25;100.00;52465.53;2097228;28;20961;-79
2023/11/05 04:05:28;;;;;;;5.72;0.80;;;;;;;-146.25;100.00;52481.75;2097033;28;28595;-79
2023/11/05 04:06:31;;;;;;;3.78;0.50;;;;;;;-146.25;100.00;52459.44;2089381;28;20925;-79
2023/11/05 04:07:33;;;;;;;7.75;0.43;;;;;;;-146.25;100.00;52473.63;2089100;28;34868;-79
2023/11/05 04:08:35;;;;;;;4.93;0.50;;;;;;;-146.25;100.00;52469.56;2088269;28;36636;-78
2023/11/05 04:09:37;;;;;;;4.30;0.50;;;;;;;-146.25;100.00;52518.25;2089051;28;20127;-79
2023/11/05 04:10:39;;;;;;;7.75;0.47;;;;;;;-146.25;100.00;52465.53;2089486;28;20033;-79
2023/11/05 04:11:41;;;;;;;3.28;0.40;;;;;;;-146.25;100.00;52471.59;2089194;28;37652;-78
2023/11/05 04:12:43;;;;;;;6.15;0.60;;;;;;;-146.25;100.00;52479.72;2088691;28;36959;-79
2023/11/05 04:13:46;;;;;;;4.10;0.30;;;;;;;-146.25;100.00;52528.38;2089067;28;35727;-78
2023/11/05 04:14:48;;;;;;;4.72;0.40;;;;;;;-146.25;100.00;52493.91;2088294;28;39259;-79
2023/11/05 04:15:49;;;;;;;5.90;0.63;;;;;;;-146.25;100.00;52451.31;2088681;28;34302;-78
2023/11/05 04:16:53;;;;;;;6.60;0.55;;;;;;;-146.25;100.00;52495.94;2089250;28;20042;-78
2023/11/05 04:17:55;;;;;;;4.47;0.40;;;;;;;-146.25;100.00;52459.44;2088207;28;38208;-78
2023/11/05 04:18:57;;;;;;;2.20;0.40;;;;;;;-146.25;100.00;52477.69;2088471;28;35221;-79
2023/11/05 04:20:00;;;;;;;3.13;0.30;;;;;;;-146.25;100.00;52487.81;2088702;28;35451;-79
2023/11/05 04:21:02;;;;;;;4.68;0.50;;;;;;;-146.25;100.00;52477.69;2088594;28;33416;-79
2023/11/05 04:22:04;;;;;;;2.28;0.40;;;;;;;-146.25;100.00;52502.03;2089159;28;20053;-77
2023/11/05 04:23:06;;;;;;;4.80;0.47;;;;;;;-146.25;100.00;52495.94;2088974;28;34308;-79
2023/11/05 04:24:08;;;;;;;4.78;0.32;;;;;;;-146.25;100.00;52473.63;2088535;28;36186;-79
2023/11/05 04:25:12;;;;;;;4.72;0.60;;;;;;;-146.25;100.00;52508.09;2089219;28;20041;-79
2023/11/05 04:26:13;;;;;;;4.00;0.60;;;;;;;-146.25;100.00;52463.50;2089100;28;36733;-79
2023/11/05 04:27:16;;;;;;;4.47;0.47;;;;;;;-146.25;100.00;52483.78;2088196;28;33050;-78
2023/11/05 04:28:18;;;;;;;2.80;0.35;;;;;;;-146.25;100.00;52457.41;2080466;28;20038;-78
2023/11/05 04:29:20;;;;;;;3.92;0.40;;;;;;;-146.25;100.00;52485.81;2088115;28;36237;-79
2023/11/05 04:30:22;;;;;;;5.50;0.52;;;;;;;-146.25;100.00;52429.03;2089602;28;20041;-80
2023/11/05 04:31:24;;;;;;;5.20;0.40;;;;;;;-146.25;100.00;52449.31;2089464;28;20923;-79
2023/11/05 04:32:28;;;;;;;4.18;0.25;;;;;;;-146.25;100.00;52477.69;2088631;28;35366;-79
2023/11/05 04:33:30;;;;;;;3.40;0.50;;;;;;;-146.25;100.00;52465.53;2088759;28;37537;-80
2023/11/05 04:34:32;;;;;;;5.60;0.45;;;;;;;-146.25;100.00;52479.72;2088743;28;34168;-79
2023/11/05 04:35:34;;;;;;;3.78;0.40;;;;;;;-146.25;100.00;52481.75;2088388;28;33671;-79
2023/11/05 04:36:42;;;;;;;5.97;0.40;;;;;;;-146.25;100.00;52506.06;2089139;28;37590;-79
2023/11/05 04:37:44;;;;;;;4.20;0.35;;;;;;;-146.25;100.00;52493.91;2089034;28;34400;-79
2023/11/05 04:38:46;;;;;;;3.95;0.57;;;;;;;-146.25;100.00;52459.44;2088892;28;37880;-79
2023/11/05 04:39:47;;;;;;;4.72;0.60;;;;;;;-146.25;100.00;52485.81;2096249;28;31255;-79
2023/11/05 04:40:50;;;;;;;5.38;0.40;;;;;;;-146.25;100.00;52479.72;2096917;28;20047;-78
2023/11/05 04:41:53;;;;;;;5.57;0.55;;;;;;;-146.25;100.00;52465.53;2088456;28;37103;-79
2023/11/05 04:42:55;;;;;;;4.40;0.40;;;;;;;-146.25;100.00;52477.69;2088858;28;33778;-78
2023/11/05 04:43:59;;;;;;;3.00;0.40;;;;;;;-146.25;100.00;52497.97;2088493;28;37346;-78
2023/11/05 04:45:02;;;;;;;3.65;0.40;;;;;;;-146.25;100.00;52510.13;2089514;28;20179;-79